Orbital elements of SJ-5
| Launched | 9 May 1999 |
| Flight ended | – |
| Launch site | Taiyuan Space Center, PRC |
| Owner | People's Republic of China |
| NORAD ID | 25731 |
| Date fetched |
Epoch osculation |
Inc. [°] |
Ecc. | RA asc node [hr] |
Arg Peri. [°] |
Mean anom [°] |
Mean motion [rev/day] |
Abs. mag |
| Date fetched |
Epoch osculation |
Inc. [°] |
Ecc. | RA asc node [hr] |
Arg Peri. [°] |
Mean anom [°] |
Mean motion [rev/day] |
Abs. mag |
| 2026 May 07 17:58 | 2026 May 05 09:54:06 | 98.7292 | 0.00180 | 11.2595 | 115.7646 | 244.5390 | 14.12925 | 6.243 |
| 2026 May 06 17:57 | 2026 May 05 09:54:06 | 98.7292 | 0.00180 | 11.2595 | 115.7646 | 244.5390 | 14.12925 | 6.243 |
| 2026 May 05 17:57 | 2026 May 05 09:54:06 | 98.7292 | 0.00180 | 11.2595 | 115.7646 | 244.5390 | 14.12925 | 6.243 |
| 2026 May 04 17:57 | 2026 Apr 30 14:19:55 | 98.7298 | 0.00179 | 10.9464 | 128.7292 | 244.5390 | 14.12925 | 6.243 |
| 2026 May 03 17:57 | 2026 Apr 30 14:19:55 | 98.7298 | 0.00179 | 10.9464 | 128.7292 | 244.5390 | 14.12925 | 6.243 |
| 2026 May 02 17:57 | 2026 Apr 30 14:19:55 | 98.7298 | 0.00179 | 10.9464 | 128.7292 | 244.5390 | 14.12925 | 6.243 |
| 2026 May 01 17:56 | 2026 Apr 30 14:19:55 | 98.7298 | 0.00179 | 10.9464 | 128.7292 | 244.5390 | 14.12925 | 6.243 |
| 2026 Apr 30 17:56 | 2026 Apr 30 14:19:55 | 98.7298 | 0.00179 | 10.9464 | 128.7292 | 244.5390 | 14.12925 | 6.243 |
| 2026 Apr 29 17:57 | 2026 Apr 24 01:58:20 | 98.7309 | 0.00177 | 10.5228 | 146.3702 | 244.5390 | 14.12925 | 6.243 |
| 2026 Apr 28 17:56 | 2026 Apr 24 01:58:20 | 98.7309 | 0.00177 | 10.5228 | 146.3702 | 244.5390 | 14.12925 | 6.243 |
| 2026 Apr 27 17:58 | 2026 Apr 24 01:58:20 | 98.7309 | 0.00177 | 10.5228 | 146.3702 | 244.5390 | 14.12925 | 6.243 |
| 2026 Apr 26 17:58 | 2026 Apr 24 01:58:20 | 98.7309 | 0.00177 | 10.5228 | 146.3702 | 244.5390 | 14.12925 | 6.243 |
| 2026 Apr 25 17:58 | 2026 Apr 24 01:58:20 | 98.7309 | 0.00177 | 10.5228 | 146.3702 | 244.5390 | 14.12925 | 6.243 |
| 2026 Apr 24 17:59 | 2026 Apr 24 01:58:20 | 98.7309 | 0.00177 | 10.5228 | 146.3702 | 244.5390 | 14.12925 | 6.243 |
| 2026 Apr 23 17:57 | 2026 Apr 19 09:48:05 | 98.7318 | 0.00174 | 10.2189 | 159.0697 | 244.5390 | 14.12925 | 6.243 |
| 2026 Apr 22 17:57 | 2026 Apr 19 09:48:05 | 98.7318 | 0.00174 | 10.2189 | 159.0697 | 244.5390 | 14.12925 | 6.243 |
| 2026 Apr 21 17:57 | 2026 Apr 19 09:48:05 | 98.7318 | 0.00174 | 10.2189 | 159.0697 | 244.5390 | 14.12925 | 6.243 |
| 2026 Apr 20 17:57 | 2026 Apr 19 09:48:05 | 98.7318 | 0.00174 | 10.2189 | 159.0697 | 244.5390 | 14.12925 | 6.243 |
| 2026 Apr 19 17:58 | 2026 Apr 19 09:48:05 | 98.7318 | 0.00174 | 10.2189 | 159.0697 | 244.5390 | 14.12925 | 6.243 |
| 2026 Apr 18 17:56 | 2026 Apr 13 02:32:25 | 98.7329 | 0.00171 | 9.8090 | 176.7333 | 244.5390 | 14.12925 | 6.243 |
| 2026 Apr 16 17:57 | 2026 Apr 13 02:32:25 | 98.7329 | 0.00171 | 9.8090 | 176.7333 | 244.5390 | 14.12925 | 6.243 |
| 2026 Apr 14 17:57 | 2026 Apr 13 02:32:25 | 98.7329 | 0.00171 | 9.8090 | 176.7333 | 244.5390 | 14.12925 | 6.243 |
| 2026 Apr 13 17:57 | 2026 Apr 13 02:32:25 | 98.7329 | 0.00171 | 9.8090 | 176.7333 | 244.5390 | 14.12925 | 6.243 |
| 2026 Apr 12 17:57 | 2026 Apr 08 13:46:06 | 98.7335 | 0.00168 | 9.5142 | 189.6166 | 244.5390 | 14.12925 | 6.243 |
| 2026 Apr 11 17:57 | 2026 Apr 08 13:46:06 | 98.7335 | 0.00168 | 9.5142 | 189.6166 | 244.5390 | 14.12925 | 6.243 |
| 2026 Apr 10 17:58 | 2026 Apr 08 13:46:06 | 98.7335 | 0.00168 | 9.5142 | 189.6166 | 244.5390 | 14.12925 | 6.243 |